sensor_id;sensor_type;location;lat;lon;timestamp;P1;durP1;ratioP1;P2;durP2;ratioP2
39340;SDS011;25059;52.132;21.062;2024-03-23T00:53:25;0.20;;;0.20;;
39340;SDS011;25059;52.132;21.062;2024-03-23T00:56:10;0.20;;;0.20;;
39340;SDS011;25059;52.132;21.062;2024-03-23T00:58:54;0.20;;;0.20;;
39340;SDS011;25059;52.132;21.062;2024-03-23T01:01:39;0.20;;;0.20;;
39340;SDS011;25059;52.132;21.062;2024-03-23T01:04:24;0.20;;;0.20;;
39340;SDS011;25059;52.132;21.062;2024-03-23T01:07:08;0.20;;;0.20;;
39340;SDS011;25059;52.132;21.062;2024-03-23T01:09:53;0.20;;;0.20;;
39340;SDS011;25059;52.132;21.062;2024-03-23T01:12:37;0.20;;;0.20;;
39340;SDS011;25059;52.132;21.062;2024-03-23T01:15:22;0.20;;;0.20;;
39340;SDS011;25059;52.132;21.062;2024-03-23T01:18:07;0.30;;;0.30;;
39340;SDS011;25059;52.132;21.062;2024-03-23T01:20:51;0.20;;;0.20;;
39340;SDS011;25059;52.132;21.062;2024-03-23T01:23:36;0.20;;;0.20;;
39340;SDS011;25059;52.132;21.062;2024-03-23T01:26:20;0.20;;;0.20;;
39340;SDS011;25059;52.132;21.062;2024-03-23T01:29:05;0.20;;;0.20;;
39340;SDS011;25059;52.132;21.062;2024-03-23T01:31:50;0.10;;;0.10;;
39340;SDS011;25059;52.132;21.062;2024-03-23T01:34:34;0.20;;;0.20;;
39340;SDS011;25059;52.132;21.062;2024-03-23T01:37:19;0.20;;;0.20;;
39340;SDS011;25059;52.132;21.062;2024-03-23T01:40:04;0.20;;;0.20;;
39340;SDS011;25059;52.132;21.062;2024-03-23T01:42:56;0.20;;;0.20;;
39340;SDS011;25059;52.132;21.062;2024-03-23T01:45:41;0.15;;;0.15;;
39340;SDS011;25059;52.132;21.062;2024-03-23T01:48:26;0.20;;;0.20;;
39340;SDS011;25059;52.132;21.062;2024-03-23T01:51:10;0.30;;;0.30;;
39340;SDS011;25059;52.132;21.062;2024-03-23T01:53:55;0.20;;;0.20;;
39340;SDS011;25059;52.132;21.062;2024-03-23T01:56:40;0.20;;;0.20;;
39340;SDS011;25059;52.132;21.062;2024-03-23T01:59:26;0.20;;;0.20;;
39340;SDS011;25059;52.132;21.062;2024-03-23T02:02:10;0.20;;;0.20;;
39340;SDS011;25059;52.132;21.062;2024-03-23T02:04:55;0.20;;;0.20;;
39340;SDS011;25059;52.132;21.062;2024-03-23T02:10:50;0.20;;;0.20;;
39340;SDS011;25059;52.132;21.062;2024-03-23T02:13:35;0.20;;;0.20;;
39340;SDS011;25059;52.132;21.062;2024-03-23T02:16:19;0.13;;;0.13;;
39340;SDS011;25059;52.132;21.062;2024-03-23T02:19:04;0.20;;;0.20;;
39340;SDS011;25059;52.132;21.062;2024-03-23T02:21:49;0.20;;;0.20;;
39340;SDS011;25059;52.132;21.062;2024-03-23T02:24:33;0.20;;;0.20;;
39340;SDS011;25059;52.132;21.062;2024-03-23T02:27:18;0.20;;;0.20;;
39340;SDS011;25059;52.132;21.062;2024-03-23T02:30:03;0.20;;;0.20;;
39340;SDS011;25059;52.132;21.062;2024-03-23T02:32:48;0.10;;;0.10;;
39340;SDS011;25059;52.132;21.062;2024-03-23T02:35:32;0.10;;;0.10;;
39340;SDS011;25059;52.132;21.062;2024-03-23T02:38:18;0.20;;;0.20;;
39340;SDS011;25059;52.132;21.062;2024-03-23T02:41:03;0.20;;;0.20;;
39340;SDS011;25059;52.132;21.062;2024-03-23T02:43:49;0.20;;;0.20;;
39340;SDS011;25059;52.132;21.062;2024-03-23T02:46:33;0.20;;;0.20;;
39340;SDS011;25059;52.132;21.062;2024-03-23T02:49:18;0.20;;;0.20;;
39340;SDS011;25059;52.132;21.062;2024-03-23T02:52:03;0.20;;;0.20;;
39340;SDS011;25059;52.132;21.062;2024-03-23T02:54:47;0.20;;;0.20;;
39340;SDS011;25059;52.132;21.062;2024-03-23T02:57:32;0.20;;;0.20;;
39340;SDS011;25059;52.132;21.062;2024-03-23T03:00:17;0.20;;;0.20;;
39340;SDS011;25059;52.132;21.062;2024-03-23T03:03:01;0.20;;;0.20;;
39340;SDS011;25059;52.132;21.062;2024-03-23T03:05:47;0.20;;;0.20;;
39340;SDS011;25059;52.132;21.062;2024-03-23T03:08:32;0.10;;;0.10;;
39340;SDS011;25059;52.132;21.062;2024-03-23T03:11:17;0.10;;;0.10;;
39340;SDS011;25059;52.132;21.062;2024-03-23T03:14:01;0.20;;;0.20;;
39340;SDS011;25059;52.132;21.062;2024-03-23T03:16:47;0.20;;;0.20;;
39340;SDS011;25059;52.132;21.062;2024-03-23T03:19:31;0.20;;;0.20;;
39340;SDS011;25059;52.132;21.062;2024-03-23T03:22:17;0.20;;;0.20;;
39340;SDS011;25059;52.132;21.062;2024-03-23T03:25:01;0.20;;;0.20;;
39340;SDS011;25059;52.132;21.062;2024-03-23T03:27:46;0.20;;;0.20;;
39340;SDS011;25059;52.132;21.062;2024-03-23T03:30:31;0.20;;;0.20;;
39340;SDS011;25059;52.132;21.062;2024-03-23T03:33:15;0.20;;;0.20;;
39340;SDS011;25059;52.132;21.062;2024-03-23T03:36:00;0.20;;;0.20;;
39340;SDS011;25059;52.132;21.062;2024-03-23T03:38:45;0.15;;;0.15;;
39340;SDS011;25059;52.132;21.062;2024-03-23T03:41:30;0.20;;;0.20;;
39340;SDS011;25059;52.132;21.062;2024-03-23T03:44:16;0.17;;;0.17;;
39340;SDS011;25059;52.132;21.062;2024-03-23T03:47:00;0.20;;;0.20;;
39340;SDS011;25059;52.132;21.062;2024-03-23T03:49:45;0.20;;;0.20;;
39340;SDS011;25059;52.132;21.062;2024-03-23T03:52:29;0.20;;;0.20;;
39340;SDS011;25059;52.132;21.062;2024-03-23T03:55:15;0.20;;;0.20;;
39340;SDS011;25059;52.132;21.062;2024-03-23T03:58:00;0.20;;;0.20;;
39340;SDS011;25059;52.132;21.062;2024-03-23T04:00:45;0.20;;;0.20;;
39340;SDS011;25059;52.132;21.062;2024-03-23T04:03:29;0.20;;;0.20;;
39340;SDS011;25059;52.132;21.062;2024-03-23T04:06:21;0.15;;;0.15;;
39340;SDS011;25059;52.132;21.062;2024-03-23T04:09:06;0.20;;;0.20;;
39340;SDS011;25059;52.132;21.062;2024-03-23T04:11:51;0.20;;;0.20;;
39340;SDS011;25059;52.132;21.062;2024-03-23T04:14:35;0.20;;;0.20;;
39340;SDS011;25059;52.132;21.062;2024-03-23T04:17:21;0.20;;;0.20;;
39340;SDS011;25059;52.132;21.062;2024-03-23T04:20:06;0.20;;;0.20;;
39340;SDS011;25059;52.132;21.062;2024-03-23T04:22:55;0.20;;;0.20;;
39340;SDS011;25059;52.132;21.062;2024-03-23T04:25:40;0.20;;;0.20;;
39340;SDS011;25059;52.132;21.062;2024-03-23T04:28:24;0.20;;;0.20;;
39340;SDS011;25059;52.132;21.062;2024-03-23T04:31:09;0.20;;;0.20;;
39340;SDS011;25059;52.132;21.062;2024-03-23T04:33:54;0.20;;;0.20;;
39340;SDS011;25059;52.132;21.062;2024-03-23T04:40:05;0.20;;;0.20;;
39340;SDS011;25059;52.132;21.062;2024-03-23T04:42:50;0.20;;;0.20;;
39340;SDS011;25059;52.132;21.062;2024-03-23T04:45:34;0.20;;;0.20;;
39340;SDS011;25059;52.132;21.062;2024-03-23T04:48:19;0.20;;;0.20;;
39340;SDS011;25059;52.132;21.062;2024-03-23T04:51:06;0.20;;;0.20;;
39340;SDS011;25059;52.132;21.062;2024-03-23T04:53:51;0.20;;;0.20;;
39340;SDS011;25059;52.132;21.062;2024-03-23T04:56:36;0.20;;;0.20;;
39340;SDS011;25059;52.132;21.062;2024-03-23T04:59:20;0.20;;;0.20;;
39340;SDS011;25059;52.132;21.062;2024-03-23T05:02:05;0.20;;;0.20;;
39340;SDS011;25059;52.132;21.062;2024-03-23T05:04:49;0.20;;;0.20;;
39340;SDS011;25059;52.132;21.062;2024-03-23T05:07:33;0.20;;;0.20;;
39340;SDS011;25059;52.132;21.062;2024-03-23T05:10:18;0.20;;;0.20;;
39340;SDS011;25059;52.132;21.062;2024-03-23T05:13:03;0.15;;;0.15;;
39340;SDS011;25059;52.132;21.062;2024-03-23T05:15:52;0.20;;;0.20;;
39340;SDS011;25059;52.132;21.062;2024-03-23T05:18:37;0.20;;;0.20;;
39340;SDS011;25059;52.132;21.062;2024-03-23T05:21:22;0.20;;;0.20;;
39340;SDS011;25059;52.132;21.062;2024-03-23T05:24:06;0.20;;;0.20;;
39340;SDS011;25059;52.132;21.062;2024-03-23T05:26:51;0.20;;;0.20;;
39340;SDS011;25059;52.132;21.062;2024-03-23T05:29:36;0.20;;;0.20;;
39340;SDS011;25059;52.132;21.062;2024-03-23T05:32:20;0.20;;;0.20;;
39340;SDS011;25059;52.132;21.062;2024-03-23T05:35:05;0.20;;;0.20;;
39340;SDS011;25059;52.132;21.062;2024-03-23T05:37:51;0.20;;;0.20;;
39340;SDS011;25059;52.132;21.062;2024-03-23T05:40:36;0.20;;;0.20;;
39340;SDS011;25059;52.132;21.062;2024-03-23T05:43:25;0.20;;;0.20;;
39340;SDS011;25059;52.132;21.062;2024-03-23T05:46:10;0.10;;;0.10;;
39340;SDS011;25059;52.132;21.062;2024-03-23T05:48:55;0.20;;;0.20;;
39340;SDS011;25059;52.132;21.062;2024-03-23T05:51:46;0.20;;;0.20;;
39340;SDS011;25059;52.132;21.062;2024-03-23T05:54:30;0.17;;;0.17;;
39340;SDS011;25059;52.132;21.062;2024-03-23T05:57:14;0.17;;;0.17;;
39340;SDS011;25059;52.132;21.062;2024-03-23T05:59:59;0.20;;;0.20;;
39340;SDS011;25059;52.132;21.062;2024-03-23T06:02:43;0.20;;;0.20;;
39340;SDS011;25059;52.132;21.062;2024-03-23T06:05:29;0.20;;;0.20;;
39340;SDS011;25059;52.132;21.062;2024-03-23T06:08:13;0.20;;;0.20;;
39340;SDS011;25059;52.132;21.062;2024-03-23T06:10:59;0.20;;;0.20;;
39340;SDS011;25059;52.132;21.062;2024-03-23T06:13:44;0.20;;;0.20;;
39340;SDS011;25059;52.132;21.062;2024-03-23T06:16:28;0.20;;;0.20;;
39340;SDS011;25059;52.132;21.062;2024-03-23T06:19:15;0.20;;;0.20;;
39340;SDS011;25059;52.132;21.062;2024-03-23T06:21:59;0.20;;;0.20;;
39340;SDS011;25059;52.132;21.062;2024-03-23T06:24:44;0.10;;;0.10;;
39340;SDS011;25059;52.132;21.062;2024-03-23T06:27:28;0.20;;;0.20;;
39340;SDS011;25059;52.132;21.062;2024-03-23T06:30:13;0.20;;;0.20;;
39340;SDS011;25059;52.132;21.062;2024-03-23T06:32:57;0.20;;;0.20;;
39340;SDS011;25059;52.132;21.062;2024-03-23T06:35:42;0.20;;;0.20;;
39340;SDS011;25059;52.132;21.062;2024-03-23T06:38:26;0.17;;;0.17;;
39340;SDS011;25059;52.132;21.062;2024-03-23T06:41:11;0.10;;;0.10;;
39340;SDS011;25059;52.132;21.062;2024-03-23T06:43:56;0.17;;;0.17;;
39340;SDS011;25059;52.132;21.062;2024-03-23T06:46:40;0.10;;;0.10;;
39340;SDS011;25059;52.132;21.062;2024-03-23T06:49:25;0.20;;;0.20;;
39340;SDS011;25059;52.132;21.062;2024-03-23T06:52:10;0.10;;;0.10;;
39340;SDS011;25059;52.132;21.062;2024-03-23T06:54:54;0.10;;;0.10;;
39340;SDS011;25059;52.132;21.062;2024-03-23T07:04:04;0.20;;;0.20;;
39340;SDS011;25059;52.132;21.062;2024-03-23T07:06:49;0.10;;;0.10;;
39340;SDS011;25059;52.132;21.062;2024-03-23T07:09:34;0.20;;;0.20;;
39340;SDS011;25059;52.132;21.062;2024-03-23T07:12:19;0.10;;;0.10;;
39340;SDS011;25059;52.132;21.062;2024-03-23T07:15:05;0.10;;;0.10;;
39340;SDS011;25059;52.132;21.062;2024-03-23T07:17:50;0.20;;;0.20;;
39340;SDS011;25059;52.132;21.062;2024-03-23T07:20:34;0.20;;;0.20;;
39340;SDS011;25059;52.132;21.062;2024-03-23T07:23:21;0.20;;;0.20;;
39340;SDS011;25059;52.132;21.062;2024-03-23T07:26:11;0.10;;;0.10;;
39340;SDS011;25059;52.132;21.062;2024-03-23T07:29:09;0.10;;;0.10;;
39340;SDS011;25059;52.132;21.062;2024-03-23T07:38:59;0.10;;;0.10;;
39340;SDS011;25059;52.132;21.062;2024-03-23T07:42:09;0.20;;;0.20;;
39340;SDS011;25059;52.132;21.062;2024-03-23T07:48:09;0.20;;;0.20;;
39340;SDS011;25059;52.132;21.062;2024-03-23T07:51:06;0.10;;;0.10;;
39340;SDS011;25059;52.132;21.062;2024-03-23T07:53:52;0.17;;;0.17;;
39340;SDS011;25059;52.132;21.062;2024-03-23T07:56:37;0.20;;;0.20;;
39340;SDS011;25059;52.132;21.062;2024-03-23T07:59:26;0.20;;;0.20;;
39340;SDS011;25059;52.132;21.062;2024-03-23T08:02:21;0.20;;;0.20;;
39340;SDS011;25059;52.132;21.062;2024-03-23T08:05:06;0.20;;;0.20;;
39340;SDS011;25059;52.132;21.062;2024-03-23T08:08:02;0.10;;;0.10;;
39340;SDS011;25059;52.132;21.062;2024-03-23T08:10:48;0.10;;;0.10;;
39340;SDS011;25059;52.132;21.062;2024-03-23T08:13:33;0.10;;;0.10;;
39340;SDS011;25059;52.132;21.062;2024-03-23T08:16:23;0.10;;;0.10;;
39340;SDS011;25059;52.132;21.062;2024-03-23T08:19:16;0.20;;;0.20;;
39340;SDS011;25059;52.132;21.062;2024-03-23T08:22:01;0.20;;;0.20;;
39340;SDS011;25059;52.132;21.062;2024-03-23T08:24:46;0.10;;;0.10;;
39340;SDS011;25059;52.132;21.062;2024-03-23T08:27:31;0.10;;;0.10;;
39340;SDS011;25059;52.132;21.062;2024-03-23T08:30:17;0.20;;;0.20;;
39340;SDS011;25059;52.132;21.062;2024-03-23T08:33:02;0.10;;;0.10;;
39340;SDS011;25059;52.132;21.062;2024-03-23T08:35:55;0.10;;;0.10;;
39340;SDS011;25059;52.132;21.062;2024-03-23T08:38:44;0.10;;;0.10;;
39340;SDS011;25059;52.132;21.062;2024-03-23T08:41:29;0.10;;;0.10;;
39340;SDS011;25059;52.132;21.062;2024-03-23T08:44:16;0.10;;;0.10;;
39340;SDS011;25059;52.132;21.062;2024-03-23T08:47:01;0.10;;;0.10;;
39340;SDS011;25059;52.132;21.062;2024-03-23T08:49:46;0.15;;;0.15;;
39340;SDS011;25059;52.132;21.062;2024-03-23T08:52:30;0.10;;;0.10;;
39340;SDS011;25059;52.132;21.062;2024-03-23T08:55:15;0.10;;;0.10;;
39340;SDS011;25059;52.132;21.062;2024-03-23T08:58:00;0.10;;;0.10;;
39340;SDS011;25059;52.132;21.062;2024-03-23T09:00:44;0.10;;;0.10;;
39340;SDS011;25059;52.132;21.062;2024-03-23T09:03:29;0.10;;;0.10;;
39340;SDS011;25059;52.132;21.062;2024-03-23T09:06:14;0.10;;;0.10;;
39340;SDS011;25059;52.132;21.062;2024-03-23T09:09:00;0.10;;;0.10;;
39340;SDS011;25059;52.132;21.062;2024-03-23T09:11:44;0.10;;;0.10;;
39340;SDS011;25059;52.132;21.062;2024-03-23T09:14:29;0.10;;;0.10;;
39340;SDS011;25059;52.132;21.062;2024-03-23T09:20:32;0.10;;;0.10;;
39340;SDS011;25059;52.132;21.062;2024-03-23T09:23:17;0.10;;;0.10;;
39340;SDS011;25059;52.132;21.062;2024-03-23T09:26:03;0.10;;;0.10;;
39340;SDS011;25059;52.132;21.062;2024-03-23T09:28:48;0.10;;;0.10;;
39340;SDS011;25059;52.132;21.062;2024-03-23T09:31:33;0.10;;;0.10;;
39340;SDS011;25059;52.132;21.062;2024-03-23T09:34:18;0.10;;;0.10;;
39340;SDS011;25059;52.132;21.062;2024-03-23T09:37:03;0.10;;;0.10;;
39340;SDS011;25059;52.132;21.062;2024-03-23T09:39:53;0.10;;;0.10;;
39340;SDS011;25059;52.132;21.062;2024-03-23T09:42:40;0.10;;;0.10;;
39340;SDS011;25059;52.132;21.062;2024-03-23T09:45:30;0.10;;;0.10;;
39340;SDS011;25059;52.132;21.062;2024-03-23T09:48:18;0.10;;;0.10;;
39340;SDS011;25059;52.132;21.062;2024-03-23T09:51:03;0.10;;;0.10;;
39340;SDS011;25059;52.132;21.062;2024-03-23T09:53:49;0.10;;;0.10;;
39340;SDS011;25059;52.132;21.062;2024-03-23T09:56:34;0.10;;;0.10;;
39340;SDS011;25059;52.132;21.062;2024-03-23T09:59:18;0.10;;;0.10;;
39340;SDS011;25059;52.132;21.062;2024-03-23T10:02:03;0.10;;;0.10;;
39340;SDS011;25059;52.132;21.062;2024-03-23T10:04:50;0.10;;;0.10;;
39340;SDS011;25059;52.132;21.062;2024-03-23T10:07:34;0.10;;;0.10;;
39340;SDS011;25059;52.132;21.062;2024-03-23T10:10:19;0.10;;;0.10;;
39340;SDS011;25059;52.132;21.062;2024-03-23T10:13:05;0.10;;;0.10;;
39340;SDS011;25059;52.132;21.062;2024-03-23T10:15:54;0.10;;;0.10;;
39340;SDS011;25059;52.132;21.062;2024-03-23T10:18:40;0.10;;;0.10;;
39340;SDS011;25059;52.132;21.062;2024-03-23T10:21:25;0.10;;;0.10;;
39340;SDS011;25059;52.132;21.062;2024-03-23T10:24:10;0.10;;;0.10;;
39340;SDS011;25059;52.132;21.062;2024-03-23T10:26:59;0.10;;;0.10;;
39340;SDS011;25059;52.132;21.062;2024-03-23T10:29:53;0.08;;;0.08;;
39340;SDS011;25059;52.132;21.062;2024-03-23T10:32:53;0.10;;;0.10;;
39340;SDS011;25059;52.132;21.062;2024-03-23T10:35:53;0.10;;;0.10;;
39340;SDS011;25059;52.132;21.062;2024-03-23T10:38:40;0.00;;;0.00;;
39340;SDS011;25059;52.132;21.062;2024-03-23T10:41:26;0.03;;;0.03;;
39340;SDS011;25059;52.132;21.062;2024-03-23T10:44:12;0.00;;;0.00;;
39340;SDS011;25059;52.132;21.062;2024-03-23T10:46:58;0.00;;;0.00;;
39340;SDS011;25059;52.132;21.062;2024-03-23T10:49:44;0.10;;;0.10;;
39340;SDS011;25059;52.132;21.062;2024-03-23T10:52:32;0.10;;;0.10;;
39340;SDS011;25059;52.132;21.062;2024-03-23T10:55:17;0.10;;;0.10;;
39340;SDS011;25059;52.132;21.062;2024-03-23T10:58:03;0.00;;;0.00;;
39340;SDS011;25059;52.132;21.062;2024-03-23T11:00:49;0.10;;;0.10;;
39340;SDS011;25059;52.132;21.062;2024-03-23T11:03:33;0.10;;;0.10;;
39340;SDS011;25059;52.132;21.062;2024-03-23T11:06:35;0.10;;;0.10;;
39340;SDS011;25059;52.132;21.062;2024-03-23T11:15:12;0.10;;;0.10;;
39340;SDS011;25059;52.132;21.062;2024-03-23T11:18:05;0.10;;;0.10;;
39340;SDS011;25059;52.132;21.062;2024-03-23T11:20:52;0.10;;;0.10;;
39340;SDS011;25059;52.132;21.062;2024-03-23T11:23:38;0.10;;;0.10;;
39340;SDS011;25059;52.132;21.062;2024-03-23T11:26:22;0.10;;;0.10;;
39340;SDS011;25059;52.132;21.062;2024-03-23T11:29:10;0.10;;;0.10;;
39340;SDS011;25059;52.132;21.062;2024-03-23T11:31:55;0.03;;;0.03;;
39340;SDS011;25059;52.132;21.062;2024-03-23T11:34:40;0.20;;;0.20;;
39340;SDS011;25059;52.132;21.062;2024-03-23T11:37:25;0.10;;;0.10;;
39340;SDS011;25059;52.132;21.062;2024-03-23T11:40:17;0.08;;;0.08;;
39340;SDS011;25059;52.132;21.062;2024-03-23T11:43:03;0.00;;;0.00;;
39340;SDS011;25059;52.132;21.062;2024-03-23T11:45:53;0.10;;;0.10;;
39340;SDS011;25059;52.132;21.062;2024-03-23T11:48:38;0.10;;;0.10;;
39340;SDS011;25059;52.132;21.062;2024-03-23T11:51:23;0.10;;;0.10;;
39340;SDS011;25059;52.132;21.062;2024-03-23T11:54:08;0.00;;;0.00;;
39340;SDS011;25059;52.132;21.062;2024-03-23T11:59:42;0.08;;;0.08;;
39340;SDS011;25059;52.132;21.062;2024-03-23T12:02:28;0.10;;;0.10;;
39340;SDS011;25059;52.132;21.062;2024-03-23T12:05:14;0.17;;;0.17;;
39340;SDS011;25059;52.132;21.062;2024-03-23T12:08:14;0.10;;;0.10;;
39340;SDS011;25059;52.132;21.062;2024-03-23T12:11:09;0.10;;;0.10;;
39340;SDS011;25059;52.132;21.062;2024-03-23T12:13:55;0.10;;;0.10;;
39340;SDS011;25059;52.132;21.062;2024-03-23T12:16:44;0.10;;;0.10;;
39340;SDS011;25059;52.132;21.062;2024-03-23T12:19:28;0.00;;;0.00;;
39340;SDS011;25059;52.132;21.062;2024-03-23T12:22:13;0.00;;;0.00;;
39340;SDS011;25059;52.132;21.062;2024-03-23T12:24:59;0.00;;;0.00;;
39340;SDS011;25059;52.132;21.062;2024-03-23T12:27:43;0.10;;;0.10;;
39340;SDS011;25059;52.132;21.062;2024-03-23T12:30:28;0.10;;;0.10;;
39340;SDS011;25059;52.132;21.062;2024-03-23T12:33:12;0.00;;;0.00;;
39340;SDS011;25059;52.132;21.062;2024-03-23T12:35:57;0.10;;;0.10;;
39340;SDS011;25059;52.132;21.062;2024-03-23T12:38:41;0.10;;;0.10;;
39340;SDS011;25059;52.132;21.062;2024-03-23T12:41:27;0.10;;;0.10;;
39340;SDS011;25059;52.132;21.062;2024-03-23T12:44:12;0.10;;;0.10;;
39340;SDS011;25059;52.132;21.062;2024-03-23T12:46:57;0.10;;;0.10;;
39340;SDS011;25059;52.132;21.062;2024-03-23T12:49:42;0.10;;;0.10;;
39340;SDS011;25059;52.132;21.062;2024-03-23T12:52:26;0.10;;;0.10;;
39340;SDS011;25059;52.132;21.062;2024-03-23T12:55:12;0.10;;;0.10;;
39340;SDS011;25059;52.132;21.062;2024-03-23T12:57:57;0.10;;;0.10;;
39340;SDS011;25059;52.132;21.062;2024-03-23T13:00:42;0.10;;;0.10;;
39340;SDS011;25059;52.132;21.062;2024-03-23T13:03:26;0.10;;;0.10;;
39340;SDS011;25059;52.132;21.062;2024-03-23T13:06:11;0.10;;;0.10;;
39340;SDS011;25059;52.132;21.062;2024-03-23T13:08:56;0.10;;;0.10;;
39340;SDS011;25059;52.132;21.062;2024-03-23T13:11:40;0.10;;;0.10;;
39340;SDS011;25059;52.132;21.062;2024-03-23T13:14:25;0.10;;;0.10;;
39340;SDS011;25059;52.132;21.062;2024-03-23T13:17:09;0.20;;;0.20;;
39340;SDS011;25059;52.132;21.062;2024-03-23T13:19:54;0.20;;;0.20;;
39340;SDS011;25059;52.132;21.062;2024-03-23T13:22:39;0.10;;;0.10;;
39340;SDS011;25059;52.132;21.062;2024-03-23T13:25:24;0.10;;;0.10;;
39340;SDS011;25059;52.132;21.062;2024-03-23T13:28:09;0.10;;;0.10;;
39340;SDS011;25059;52.132;21.062;2024-03-23T13:30:54;0.10;;;0.10;;
39340;SDS011;25059;52.132;21.062;2024-03-23T13:33:39;0.10;;;0.10;;
39340;SDS011;25059;52.132;21.062;2024-03-23T13:36:26;0.15;;;0.15;;
39340;SDS011;25059;52.132;21.062;2024-03-23T13:39:11;0.10;;;0.10;;
39340;SDS011;25059;52.132;21.062;2024-03-23T13:41:56;0.10;;;0.10;;
39340;SDS011;25059;52.132;21.062;2024-03-23T13:44:40;0.10;;;0.10;;
39340;SDS011;25059;52.132;21.062;2024-03-23T13:47:25;0.17;;;0.17;;
39340;SDS011;25059;52.132;21.062;2024-03-23T13:50:10;0.10;;;0.10;;
39340;SDS011;25059;52.132;21.062;2024-03-23T13:52:54;0.10;;;0.10;;
39340;SDS011;25059;52.132;21.062;2024-03-23T13:55:46;0.10;;;0.10;;
39340;SDS011;25059;52.132;21.062;2024-03-23T13:58:33;0.10;;;0.10;;
39340;SDS011;25059;52.132;21.062;2024-03-23T14:01:17;0.10;;;0.10;;
39340;SDS011;25059;52.132;21.062;2024-03-23T14:04:02;0.10;;;0.10;;
39340;SDS011;25059;52.132;21.062;2024-03-23T14:06:46;0.10;;;0.10;;
39340;SDS011;25059;52.132;21.062;2024-03-23T14:09:31;0.10;;;0.10;;
39340;SDS011;25059;52.132;21.062;2024-03-23T14:12:16;0.10;;;0.10;;
39340;SDS011;25059;52.132;21.062;2024-03-23T14:15:01;0.10;;;0.10;;
39340;SDS011;25059;52.132;21.062;2024-03-23T14:17:48;0.10;;;0.10;;
39340;SDS011;25059;52.132;21.062;2024-03-23T14:20:59;0.10;;;0.10;;
39340;SDS011;25059;52.132;21.062;2024-03-23T14:26:56;0.10;;;0.10;;
39340;SDS011;25059;52.132;21.062;2024-03-23T14:29:41;0.10;;;0.10;;
39340;SDS011;25059;52.132;21.062;2024-03-23T14:32:25;0.10;;;0.10;;
39340;SDS011;25059;52.132;21.062;2024-03-23T14:35:10;0.10;;;0.10;;
39340;SDS011;25059;52.132;21.062;2024-03-23T14:37:55;0.10;;;0.10;;
39340;SDS011;25059;52.132;21.062;2024-03-23T14:40:40;0.10;;;0.10;;
39340;SDS011;25059;52.132;21.062;2024-03-23T14:43:25;0.10;;;0.10;;
39340;SDS011;25059;52.132;21.062;2024-03-23T14:46:14;0.10;;;0.10;;
39340;SDS011;25059;52.132;21.062;2024-03-23T14:49:00;0.10;;;0.10;;
39340;SDS011;25059;52.132;21.062;2024-03-23T14:51:46;0.10;;;0.10;;
39340;SDS011;25059;52.132;21.062;2024-03-23T14:54:30;0.10;;;0.10;;
39340;SDS011;25059;52.132;21.062;2024-03-23T14:57:15;0.10;;;0.10;;
39340;SDS011;25059;52.132;21.062;2024-03-23T15:00:00;0.10;;;0.10;;
39340;SDS011;25059;52.132;21.062;2024-03-23T15:02:45;0.10;;;0.10;;
39340;SDS011;25059;52.132;21.062;2024-03-23T15:05:30;0.10;;;0.10;;
39340;SDS011;25059;52.132;21.062;2024-03-23T15:08:14;0.10;;;0.10;;
39340;SDS011;25059;52.132;21.062;2024-03-23T15:11:00;0.10;;;0.10;;
39340;SDS011;25059;52.132;21.062;2024-03-23T15:13:45;0.10;;;0.10;;
39340;SDS011;25059;52.132;21.062;2024-03-23T15:16:31;0.10;;;0.10;;
39340;SDS011;25059;52.132;21.062;2024-03-23T15:19:15;0.10;;;0.10;;
39340;SDS011;25059;52.132;21.062;2024-03-23T15:22:01;0.10;;;0.10;;
39340;SDS011;25059;52.132;21.062;2024-03-23T15:24:45;0.10;;;0.10;;
39340;SDS011;25059;52.132;21.062;2024-03-23T15:27:31;0.10;;;0.10;;
39340;SDS011;25059;52.132;21.062;2024-03-23T15:30:15;0.10;;;0.10;;
39340;SDS011;25059;52.132;21.062;2024-03-23T15:33:01;0.20;;;0.20;;
39340;SDS011;25059;52.132;21.062;2024-03-23T15:35:47;0.20;;;0.20;;
39340;SDS011;25059;52.132;21.062;2024-03-23T15:38:32;0.10;;;0.10;;
39340;SDS011;25059;52.132;21.062;2024-03-23T15:41:17;0.20;;;0.20;;
39340;SDS011;25059;52.132;21.062;2024-03-23T15:44:01;0.20;;;0.20;;
39340;SDS011;25059;52.132;21.062;2024-03-23T15:46:46;0.20;;;0.20;;
39340;SDS011;25059;52.132;21.062;2024-03-23T15:49:31;0.20;;;0.20;;
39340;SDS011;25059;52.132;21.062;2024-03-23T15:52:15;0.20;;;0.20;;
39340;SDS011;25059;52.132;21.062;2024-03-23T15:55:00;0.15;;;0.15;;
39340;SDS011;25059;52.132;21.062;2024-03-23T15:57:44;0.10;;;0.10;;
39340;SDS011;25059;52.132;21.062;2024-03-23T16:00:29;0.20;;;0.20;;
39340;SDS011;25059;52.132;21.062;2024-03-23T16:03:14;0.10;;;0.10;;
39340;SDS011;25059;52.132;21.062;2024-03-23T16:06:00;0.20;;;0.20;;
39340;SDS011;25059;52.132;21.062;2024-03-23T16:08:46;0.20;;;0.20;;
39340;SDS011;25059;52.132;21.062;2024-03-23T16:11:31;0.20;;;0.20;;
39340;SDS011;25059;52.132;21.062;2024-03-23T16:14:15;0.20;;;0.20;;
39340;SDS011;25059;52.132;21.062;2024-03-23T16:17:00;0.20;;;0.20;;
39340;SDS011;25059;52.132;21.062;2024-03-23T16:19:44;0.20;;;0.20;;
39340;SDS011;25059;52.132;21.062;2024-03-23T16:22:29;0.20;;;0.20;;
39340;SDS011;25059;52.132;21.062;2024-03-23T16:25:13;0.20;;;0.20;;
39340;SDS011;25059;52.132;21.062;2024-03-23T16:27:58;0.20;;;0.20;;
39340;SDS011;25059;52.132;21.062;2024-03-23T16:30:42;0.10;;;0.10;;
39340;SDS011;25059;52.132;21.062;2024-03-23T16:33:27;0.20;;;0.20;;
39340;SDS011;25059;52.132;21.062;2024-03-23T16:36:13;0.13;;;0.13;;
39340;SDS011;25059;52.132;21.062;2024-03-23T16:38:57;0.10;;;0.10;;
39340;SDS011;25059;52.132;21.062;2024-03-23T16:41:42;0.20;;;0.20;;
39340;SDS011;25059;52.132;21.062;2024-03-23T16:44:26;0.15;;;0.15;;
39340;SDS011;25059;52.132;21.062;2024-03-23T16:47:11;0.20;;;0.20;;
39340;SDS011;25059;52.132;21.062;2024-03-23T16:49:56;0.20;;;0.20;;
39340;SDS011;25059;52.132;21.062;2024-03-23T16:52:41;0.20;;;0.20;;
39340;SDS011;25059;52.132;21.062;2024-03-23T16:55:25;0.10;;;0.10;;
39340;SDS011;25059;52.132;21.062;2024-03-23T16:58:11;0.10;;;0.10;;
39340;SDS011;25059;52.132;21.062;2024-03-23T17:00:56;0.20;;;0.20;;
39340;SDS011;25059;52.132;21.062;2024-03-23T17:03:41;0.13;;;0.13;;
39340;SDS011;25059;52.132;21.062;2024-03-23T17:06:26;0.20;;;0.20;;
39340;SDS011;25059;52.132;21.062;2024-03-23T17:09:11;0.10;;;0.10;;
39340;SDS011;25059;52.132;21.062;2024-03-23T17:11:56;0.17;;;0.17;;
39340;SDS011;25059;52.132;21.062;2024-03-23T17:14:40;0.20;;;0.20;;
39340;SDS011;25059;52.132;21.062;2024-03-23T17:17:26;0.17;;;0.17;;
39340;SDS011;25059;52.132;21.062;2024-03-23T17:20:11;0.20;;;0.20;;
39340;SDS011;25059;52.132;21.062;2024-03-23T17:22:55;0.20;;;0.20;;
39340;SDS011;25059;52.132;21.062;2024-03-23T17:25:40;0.10;;;0.10;;
39340;SDS011;25059;52.132;21.062;2024-03-23T17:28:25;0.20;;;0.20;;
39340;SDS011;25059;52.132;21.062;2024-03-23T17:31:25;0.20;;;0.20;;
39340;SDS011;25059;52.132;21.062;2024-03-23T17:34:09;0.20;;;0.20;;
39340;SDS011;25059;52.132;21.062;2024-03-23T17:36:54;0.20;;;0.20;;
39340;SDS011;25059;52.132;21.062;2024-03-23T17:39:39;0.20;;;0.20;;
39340;SDS011;25059;52.132;21.062;2024-03-23T17:42:23;0.20;;;0.20;;
39340;SDS011;25059;52.132;21.062;2024-03-23T17:45:07;0.20;;;0.20;;
39340;SDS011;25059;52.132;21.062;2024-03-23T17:47:53;0.20;;;0.20;;
39340;SDS011;25059;52.132;21.062;2024-03-23T17:50:39;0.20;;;0.20;;
39340;SDS011;25059;52.132;21.062;2024-03-23T17:53:23;0.20;;;0.20;;